Ravenglass, United Kingdom
Current Conditions -  °F | °C
As of 8:50 PM on Friday 19 Dec 2014 (Local Time) from EGNH Reporting Station
Rain Showers Rain Showers  
Wind Chill: 38°   Ceiling: Unl
Heat Index: 46°   Visibility: 6mi
Dew Point: 41°   Wind: 26mph
Humidity: 81%   Direction: 260°W
Pressure: 30.03"   Gusts: NA
Location:  54.36°N, 3.39°W
Report Text: EGNH 192050Z 26023KT 9999 -SHRA FEW017 SCT031 08/05 Q1017
Loading
Personal Weather Stations






























Interactive Weather Map New forecast layout! Learn more

10-Day Weather Forecast

Advertisements
Track Severe Weather on mobile